Easton, Maryland
Current Conditions -  °F | °C
As of 10:51 PM on Friday 24 Oct 2014 (Local Time) from KESN Reporting Station
Clear Clear  
Wind Chill: 56°   Ceiling: Unl
Heat Index: 56°   Visibility: 10mi
Dew Point: 42°   Wind: 0mph
Humidity: 60%   Direction: NA
Pressure: 29.96"   Gusts: NA
Location:  38.78°N, 76.06°W
Report Text: KESN 250251Z AUTO 00000KT 10SM CLR 13/06 A2996 RMK AO2 T01320057
Loading
Personal Weather Stations






























Interactive Weather Map
Tropical Storm Tracking
New forecast layout! Learn more

10-Day Weather Forecast

Advertisements
Track Severe Weather on mobile